createdAt,value
2023-04-15T00:00:12.199Z,17
2023-04-15T00:00:42.640Z,17
2023-04-15T00:01:13.816Z,17
2023-04-15T00:01:44.436Z,17
2023-04-15T00:02:15.748Z,17
2023-04-15T00:02:47.183Z,17
2023-04-15T00:03:17.929Z,17
2023-04-15T00:03:48.733Z,17
2023-04-15T00:04:19.856Z,17
2023-04-15T00:04:52.198Z,17
2023-04-15T00:05:21.783Z,17
2023-04-15T00:05:54.695Z,17
2023-04-15T00:06:23.409Z,17
2023-04-15T00:06:55.675Z,17
2023-04-15T00:07:25.829Z,17
2023-04-15T00:07:56.773Z,17
2023-04-15T00:08:27.756Z,17
2023-04-15T00:08:58.573Z,17
2023-04-15T00:09:29.461Z,17
2023-04-15T00:10:00.876Z,17
2023-04-15T00:10:31.485Z,17
2023-04-15T00:11:02.508Z,17
2023-04-15T00:11:33.445Z,17
2023-04-15T00:12:04.657Z,17
2023-04-15T00:12:35.730Z,17
2023-04-15T00:13:06.561Z,17
2023-04-15T00:13:37.831Z,17
2023-04-15T00:14:08.908Z,17
2023-04-15T00:14:39.760Z,17
2023-04-15T00:15:11.372Z,17
2023-04-15T00:15:41.662Z,17
2023-04-15T00:16:12.673Z,17
2023-04-15T00:16:43.532Z,17
2023-04-15T00:17:14.423Z,17
2023-04-15T00:17:46.321Z,17
2023-04-15T00:18:16.471Z,17
2023-04-15T00:18:47.446Z,17
2023-04-15T00:19:18.420Z,17
2023-04-15T00:19:49.531Z,17
2023-04-15T00:20:20.875Z,17
2023-04-15T00:20:51.531Z,17
2023-04-15T00:21:22.629Z,17
2023-04-15T00:21:53.795Z,17
2023-04-15T00:22:24.515Z,17
2023-04-15T00:22:55.890Z,17
2023-04-15T00:23:26.485Z,17
2023-04-15T00:23:57.457Z,17
2023-04-15T00:24:28.454Z,17
2023-04-15T00:24:59.861Z,17
2023-04-15T00:25:30.785Z,17
2023-04-15T00:26:01.504Z,17
2023-04-15T00:26:32.657Z,17
2023-04-15T00:27:03.547Z,17
2023-04-15T00:27:34.534Z,17
2023-04-15T00:28:05.754Z,17
2023-04-15T00:28:36.466Z,17
2023-04-15T00:29:07.750Z,17
2023-04-15T00:29:38.875Z,17
2023-04-15T00:30:09.986Z,17
2023-04-15T00:30:40.706Z,17
2023-04-15T00:31:11.444Z,17
2023-04-15T00:31:42.634Z,17
2023-04-15T00:32:13.645Z,17
2023-04-15T00:32:44.442Z,17
2023-04-15T00:33:15.511Z,17
2023-04-15T00:33:46.829Z,17
2023-04-15T00:34:17.569Z,17
2023-04-15T00:34:48.640Z,17
2023-04-15T00:35:20.260Z,17
2023-04-15T00:35:50.546Z,17
2023-04-15T00:36:23.345Z,17
2023-04-15T00:36:52.810Z,17
2023-04-15T00:37:25.420Z,17
2023-04-15T00:37:54.715Z,17
2023-04-15T00:38:26.571Z,17
2023-04-15T00:38:56.540Z,17
2023-04-15T00:39:27.500Z,17
2023-04-15T00:39:58.495Z,17
2023-04-15T00:40:29.975Z,17
2023-04-15T00:41:00.558Z,17
2023-04-15T00:41:31.636Z,17
2023-04-15T00:42:02.540Z,17
2023-04-15T00:42:33.541Z,17
2023-04-15T00:43:04.718Z,17
2023-04-15T00:43:35.663Z,17
2023-04-15T00:44:06.752Z,17
2023-04-15T00:44:37.597Z,17
2023-04-15T00:45:09.306Z,17
2023-04-15T00:45:39.768Z,17
2023-04-15T00:46:10.909Z,17
2023-04-15T00:46:41.807Z,16
2023-04-15T00:47:12.817Z,16
2023-04-15T00:47:43.736Z,16
2023-04-15T00:48:15.135Z,16
2023-04-15T00:48:45.606Z,17
2023-04-15T00:49:16.610Z,17
2023-04-15T00:49:47.983Z,17
2023-04-15T00:50:19.007Z,17
2023-04-15T00:50:49.831Z,17
2023-04-15T00:51:20.611Z,17
2023-04-15T00:51:51.612Z,17
2023-04-15T00:52:22.580Z,17
2023-04-15T00:52:53.630Z,17
2023-04-15T00:53:24.950Z,17
2023-04-15T00:53:55.548Z,17
2023-04-15T00:54:26.851Z,17
2023-04-15T00:54:57.914Z,17
2023-04-15T00:55:29.085Z,17
2023-04-15T00:55:59.922Z,17
2023-04-15T00:56:30.582Z,17
2023-04-15T00:57:01.744Z,17
2023-04-15T00:57:33.010Z,17
2023-04-15T00:58:03.782Z,17
2023-04-15T00:58:35.044Z,17
2023-04-15T00:59:05.916Z,17
2023-04-15T00:59:36.827Z,17
2023-04-15T01:00:08.757Z,17
2023-04-15T01:00:38.714Z,17
2023-04-15T01:01:09.889Z,17
2023-04-15T01:01:40.734Z,17
2023-04-15T01:02:11.697Z,17
2023-04-15T01:02:42.723Z,17
2023-04-15T01:03:13.685Z,17
2023-04-15T01:03:44.979Z,17
2023-04-15T01:04:15.759Z,17
2023-04-15T01:04:46.730Z,17
2023-04-15T01:05:17.871Z,17
2023-04-15T01:05:48.573Z,17
2023-04-15T01:06:19.664Z,17
2023-04-15T01:06:50.866Z,17
2023-04-15T01:07:21.777Z,17
2023-04-15T01:07:53.714Z,17
2023-04-15T01:08:23.682Z,17
2023-04-15T01:08:56.606Z,17
2023-04-15T01:09:25.781Z,17
2023-04-15T01:09:57.837Z,17
2023-04-15T01:10:28.181Z,17
2023-04-15T01:10:58.724Z,17
2023-04-15T01:11:29.794Z,17
2023-04-15T01:12:01.010Z,17
2023-04-15T01:12:32.132Z,17
2023-04-15T01:13:03.289Z,17
2023-04-15T01:13:33.922Z,17
2023-04-15T01:14:04.984Z,17
2023-04-15T01:14:36.047Z,17
2023-04-15T01:15:07.373Z,17
2023-04-15T01:15:37.680Z,17
2023-04-15T01:16:08.770Z,17
2023-04-15T01:16:39.794Z,17
2023-04-15T01:17:10.882Z,17
2023-04-15T01:17:42.059Z,17
2023-04-15T01:18:12.952Z,17
2023-04-15T01:18:44.037Z,17
2023-04-15T01:19:14.996Z,17
2023-04-15T01:19:46.048Z,17
2023-04-15T01:20:17.564Z,17
2023-04-15T01:20:47.660Z,17
2023-04-15T01:21:18.750Z,17
2023-04-15T01:21:50.103Z,17
2023-04-15T01:22:20.689Z,17
2023-04-15T01:22:51.942Z,17
2023-04-15T01:23:23.300Z,17
2023-04-15T01:23:53.785Z,17
2023-04-15T01:24:24.734Z,17
2023-04-15T01:24:55.977Z,17
2023-04-15T01:25:27.262Z,17
2023-04-15T01:25:58.086Z,17
2023-04-15T01:26:28.771Z,17
2023-04-15T01:26:59.872Z,17
2023-04-15T01:27:30.732Z,17
2023-04-15T01:28:01.908Z,17
2023-04-15T01:28:32.934Z,17
2023-04-15T01:29:04.048Z,17
2023-04-15T01:29:35.140Z,17
2023-04-15T01:30:06.497Z,17
2023-04-15T01:30:36.798Z,17
2023-04-15T01:31:07.754Z,17
2023-04-15T01:31:38.744Z,17
2023-04-15T01:32:09.894Z,17
2023-04-15T01:32:41.059Z,17
2023-04-15T01:33:11.732Z,17
2023-04-15T01:33:42.736Z,17
2023-04-15T01:34:13.842Z,17
2023-04-15T01:34:44.972Z,17
2023-04-15T01:35:16.179Z,17
2023-04-15T01:35:47.053Z,17
2023-04-15T01:36:17.839Z,17
2023-04-15T01:36:48.769Z,17
2023-04-15T01:37:19.910Z,17
2023-04-15T01:37:51.047Z,17
2023-04-15T01:38:21.899Z,17
2023-04-15T01:38:53.056Z,17
2023-04-15T01:39:26.118Z,17
2023-04-15T01:39:54.982Z,17
2023-04-15T01:40:27.410Z,17
2023-04-15T01:40:56.758Z,17
2023-04-15T01:41:28.211Z,17
2023-04-15T01:41:58.771Z,17
2023-04-15T01:42:29.740Z,17
2023-04-15T01:43:01.085Z,17
2023-04-15T01:43:31.783Z,17
2023-04-15T01:44:02.800Z,17
2023-04-15T01:44:33.747Z,17
2023-04-15T01:45:05.363Z,17
2023-04-15T01:45:35.921Z,17
2023-04-15T01:46:07.031Z,17
2023-04-15T01:46:37.987Z,17
2023-04-15T01:47:08.896Z,17
2023-04-15T01:47:40.201Z,17
2023-04-15T01:48:11.134Z,17
2023-04-15T01:48:41.915Z,17
2023-04-15T01:49:12.783Z,17
2023-04-15T01:49:43.796Z,17
2023-04-15T01:50:15.037Z,17
2023-04-15T01:50:45.842Z,17
2023-04-15T01:51:17.047Z,17
2023-04-15T01:51:47.895Z,17
2023-04-15T01:52:18.803Z,17
2023-04-15T01:52:49.796Z,17
2023-04-15T01:53:20.796Z,17
2023-04-15T01:53:51.777Z,17
2023-04-15T01:54:23.184Z,17
2023-04-15T01:54:54.224Z,17
2023-04-15T01:55:25.515Z,17
2023-04-15T01:55:55.979Z,17
2023-04-15T01:56:26.962Z,17
2023-04-15T01:56:58.180Z,16
2023-04-15T01:57:29.205Z,16
2023-04-15T01:58:00.278Z,17
2023-04-15T01:58:31.177Z,17
2023-04-15T01:59:02.254Z,16
2023-04-15T01:59:32.859Z,16
2023-04-15T02:00:04.351Z,17
2023-04-15T02:00:35.335Z,17
2023-04-15T02:01:05.922Z,17
2023-04-15T02:01:36.915Z,17
2023-04-15T02:02:07.956Z,16
2023-04-15T02:02:39.088Z,16
2023-04-15T02:03:09.979Z,16
2023-04-15T02:03:41.281Z,16
2023-04-15T02:04:11.961Z,16
2023-04-15T02:04:42.898Z,16
2023-04-15T02:05:14.776Z,16
2023-04-15T02:05:44.835Z,16
2023-04-15T02:06:16.130Z,16
2023-04-15T02:06:47.213Z,16
2023-04-15T02:07:18.213Z,16
2023-04-15T02:07:48.848Z,16
2023-04-15T02:08:19.852Z,16
2023-04-15T02:08:51.232Z,16
2023-04-15T02:09:22.069Z,16
2023-04-15T02:09:53.216Z,16
2023-04-15T02:10:24.640Z,16
2023-04-15T02:10:56.934Z,16
2023-04-15T02:11:25.941Z,17
2023-04-15T02:11:58.630Z,17
2023-04-15T02:12:27.831Z,17
2023-04-15T02:13:00.223Z,16
2023-04-15T02:13:30.089Z,16
2023-04-15T02:14:00.880Z,16
2023-04-15T02:14:31.933Z,16
2023-04-15T02:15:04.370Z,16
2023-04-15T02:15:34.161Z,16
2023-04-15T02:16:04.923Z,17
2023-04-15T02:16:36.206Z,17
2023-04-15T02:17:07.095Z,17
2023-04-15T02:17:38.099Z,17
2023-04-15T02:18:08.997Z,17
2023-04-15T02:18:39.964Z,17
2023-04-15T02:19:11.324Z,17
2023-04-15T02:19:41.936Z,17
2023-04-15T02:20:13.011Z,17
2023-04-15T02:20:43.903Z,17
2023-04-15T02:21:14.918Z,17
2023-04-15T02:21:46.292Z,17
2023-04-15T02:22:17.458Z,17
2023-04-15T02:22:48.050Z,17
2023-04-15T02:23:19.077Z,17
2023-04-15T02:23:50.612Z,17
2023-04-15T02:24:20.932Z,17
2023-04-15T02:24:51.991Z,17
2023-04-15T02:25:23.128Z,17
2023-04-15T02:25:54.350Z,17
2023-04-15T02:26:24.994Z,17
2023-04-15T02:26:56.028Z,17
2023-04-15T02:27:27.303Z,17
2023-04-15T02:27:58.005Z,17
2023-04-15T02:28:28.890Z,17
2023-04-15T02:29:00.170Z,17
2023-04-15T02:29:31.412Z,17
2023-04-15T02:30:02.462Z,17
2023-04-15T02:30:33.364Z,17
2023-04-15T02:31:04.352Z,17
2023-04-15T02:31:35.350Z,17
2023-04-15T02:32:06.477Z,17
2023-04-15T02:32:37.248Z,17
2023-04-15T02:33:07.888Z,17
2023-04-15T02:33:39.227Z,17
2023-04-15T02:34:09.927Z,17
2023-04-15T02:34:40.993Z,17
2023-04-15T02:35:12.349Z,17
2023-04-15T02:35:42.966Z,17
2023-04-15T02:36:14.398Z,17
2023-04-15T02:36:45.303Z,17
2023-04-15T02:37:16.267Z,17
2023-04-15T02:37:47.366Z,17
2023-04-15T02:38:18.348Z,16
2023-04-15T02:38:48.923Z,16
2023-04-15T02:39:19.901Z,16
2023-04-15T02:39:51.198Z,16
2023-04-15T02:40:22.427Z,16
2023-04-15T02:40:53.499Z,16
2023-04-15T02:41:24.019Z,16
2023-04-15T02:41:55.088Z,16
2023-04-15T02:42:28.102Z,15
2023-04-15T02:42:57.419Z,15
2023-04-15T02:43:29.419Z,15
2023-04-15T02:43:59.405Z,15
2023-04-15T02:44:31.361Z,15
2023-04-15T02:45:01.439Z,6
2023-04-15T02:45:31.931Z,4
2023-04-15T02:46:03.311Z,0
2023-04-15T02:46:34.570Z,358
2023-04-15T02:47:04.933Z,356
2023-04-15T02:47:36.231Z,354
2023-04-15T02:48:07.045Z,354
2023-04-15T02:48:38.123Z,354
2023-04-15T02:49:08.997Z,353
2023-04-15T02:49:40.033Z,336
2023-04-15T02:50:11.261Z,335
2023-04-15T02:50:41.942Z,331
2023-04-15T02:51:13.465Z,323
2023-04-15T02:51:44.258Z,322
2023-04-15T02:52:15.598Z,298
2023-04-15T02:52:46.015Z,294
2023-04-15T02:53:16.966Z,296
2023-04-15T02:53:48.335Z,296
2023-04-15T02:54:18.988Z,296
2023-04-15T02:54:49.981Z,296
2023-04-15T02:55:21.460Z,301
2023-04-15T02:55:52.195Z,338
2023-04-15T02:56:23.217Z,338
2023-04-15T02:56:54.030Z,226
2023-04-15T02:57:24.978Z,260
2023-04-15T02:57:56.273Z,284
2023-04-15T02:58:27.367Z,295
2023-04-15T02:58:58.625Z,297
2023-04-15T02:59:29.060Z,298
2023-04-15T03:00:00.123Z,298
2023-04-15T03:00:31.867Z,298
2023-04-15T03:01:02.138Z,299
2023-04-15T03:01:33.723Z,299
2023-04-15T03:02:04.279Z,300
2023-04-15T03:02:35.060Z,302
2023-04-15T03:03:06.500Z,308
2023-04-15T03:03:37.076Z,307
2023-04-15T03:04:08.106Z,307
2023-04-15T03:04:39.389Z,308
2023-04-15T03:05:10.634Z,308
2023-04-15T03:05:41.774Z,308
2023-04-15T03:06:12.029Z,308
2023-04-15T03:06:43.053Z,308
2023-04-15T03:07:14.010Z,308
2023-04-15T03:07:45.028Z,308
2023-04-15T03:08:16.364Z,306
2023-04-15T03:08:47.453Z,307
2023-04-15T03:09:18.452Z,307
2023-04-15T03:09:49.548Z,307
2023-04-15T03:10:20.875Z,307
2023-04-15T03:10:51.483Z,308
2023-04-15T03:11:22.972Z,308
2023-04-15T03:11:53.457Z,308
2023-04-15T03:12:24.418Z,312
2023-04-15T03:12:55.075Z,313
2023-04-15T03:13:26.093Z,316
2023-04-15T03:13:59.091Z,316
2023-04-15T03:14:28.013Z,316
2023-04-15T03:14:59.507Z,312
2023-04-15T03:15:31.037Z,313
2023-04-15T03:16:02.297Z,269
2023-04-15T03:16:32.070Z,272
2023-04-15T03:17:03.127Z,272
2023-04-15T03:17:34.901Z,272
2023-04-15T03:18:05.433Z,274
2023-04-15T03:18:36.532Z,273
2023-04-15T03:19:07.506Z,273
2023-04-15T03:19:38.357Z,274
2023-04-15T03:20:09.361Z,282
2023-04-15T03:20:40.270Z,283
2023-04-15T03:21:11.262Z,287
2023-04-15T03:21:42.163Z,296
2023-04-15T03:22:13.424Z,302
2023-04-15T03:22:44.684Z,304
2023-04-15T03:23:15.085Z,305
2023-04-15T03:23:46.135Z,305
2023-04-15T03:24:17.552Z,305
2023-04-15T03:24:48.855Z,305
2023-04-15T03:25:19.840Z,305
2023-04-15T03:25:50.291Z,305
2023-04-15T03:26:21.528Z,305
2023-04-15T03:26:52.188Z,305
2023-04-15T03:27:23.145Z,305
2023-04-15T03:27:54.146Z,305
2023-04-15T03:28:25.257Z,304
2023-04-15T03:28:56.298Z,246
2023-04-15T03:29:27.503Z,246
2023-04-15T03:29:58.573Z,254
2023-04-15T03:30:29.785Z,257
2023-04-15T03:31:00.577Z,259
2023-04-15T03:31:31.536Z,265
2023-04-15T03:32:02.204Z,269
2023-04-15T03:32:33.214Z,274
2023-04-15T03:33:04.265Z,276
2023-04-15T03:33:35.339Z,287
2023-04-15T03:34:06.523Z,299
2023-04-15T03:34:37.239Z,306
2023-04-15T03:35:08.434Z,307
2023-04-15T03:35:39.470Z,308
2023-04-15T03:36:10.475Z,308
2023-04-15T03:36:41.435Z,309
2023-04-15T03:37:12.200Z,309
2023-04-15T03:37:43.189Z,309
2023-04-15T03:38:14.194Z,310
2023-04-15T03:38:45.649Z,310
2023-04-15T03:39:16.120Z,316
2023-04-15T03:39:47.164Z,333
2023-04-15T03:40:18.836Z,333
2023-04-15T03:40:49.626Z,332
2023-04-15T03:41:20.158Z,331
2023-04-15T03:41:51.550Z,332
2023-04-15T03:42:22.306Z,332
2023-04-15T03:42:53.447Z,332
2023-04-15T03:43:24.296Z,332
2023-04-15T03:43:55.555Z,324
2023-04-15T03:44:26.219Z,321
2023-04-15T03:44:57.298Z,322
2023-04-15T03:45:31.313Z,320
2023-04-15T03:46:01.831Z,294
2023-04-15T03:46:32.566Z,295
2023-04-15T03:47:01.521Z,296
2023-04-15T03:47:33.547Z,296
2023-04-15T03:48:16.493Z,296
2023-04-15T03:48:34.296Z,296
2023-04-15T03:49:05.219Z,296
2023-04-15T03:49:36.307Z,296
2023-04-15T03:50:07.477Z,296
2023-04-15T03:50:38.194Z,296
2023-04-15T03:51:09.460Z,297
2023-04-15T03:51:40.194Z,297
2023-04-15T03:52:11.213Z,297
2023-04-15T03:52:42.238Z,300
2023-04-15T03:53:13.215Z,304
2023-04-15T03:53:44.518Z,306
2023-04-15T03:54:15.239Z,307
2023-04-15T03:54:46.520Z,308
2023-04-15T03:55:17.695Z,308
2023-04-15T03:55:48.602Z,308
2023-04-15T03:56:19.746Z,308
2023-04-15T03:56:50.183Z,308
2023-04-15T03:57:21.632Z,308
2023-04-15T03:57:52.432Z,308
2023-04-15T03:58:23.267Z,308
2023-04-15T03:58:54.384Z,308
2023-04-15T03:59:25.375Z,308
2023-04-15T03:59:56.676Z,308
2023-04-15T04:00:27.793Z,308
2023-04-15T04:00:58.230Z,308
2023-04-15T04:01:29.250Z,308
2023-04-15T04:02:00.344Z,308
2023-04-15T04:02:31.349Z,308
2023-04-15T04:03:02.406Z,308
2023-04-15T04:03:33.487Z,308
2023-04-15T04:04:04.331Z,308
2023-04-15T04:04:35.869Z,308
2023-04-15T04:05:06.535Z,308
2023-04-15T04:05:37.717Z,308
2023-04-15T04:06:08.356Z,308
2023-04-15T04:06:39.272Z,308
2023-04-15T04:07:10.608Z,308
2023-04-15T04:07:41.344Z,308
2023-04-15T04:08:12.271Z,308
2023-04-15T04:08:43.382Z,308
2023-04-15T04:09:14.532Z,308
2023-04-15T04:09:46.733Z,308
2023-04-15T04:10:16.646Z,308
2023-04-15T04:10:47.487Z,308
2023-04-15T04:11:18.241Z,308
2023-04-15T04:11:49.258Z,308
2023-04-15T04:12:20.303Z,308
2023-04-15T04:12:51.402Z,308
2023-04-15T04:13:22.313Z,308
2023-04-15T04:13:53.553Z,308
2023-04-15T04:14:24.260Z,308
2023-04-15T04:14:55.614Z,308
2023-04-15T04:15:27.174Z,308
2023-04-15T04:15:57.364Z,308
2023-04-15T04:16:28.879Z,308
2023-04-15T04:17:01.586Z,308
2023-04-15T04:17:30.278Z,308
2023-04-15T04:18:02.453Z,308
2023-04-15T04:18:32.510Z,308
2023-04-15T04:19:04.493Z,308
2023-04-15T04:19:34.388Z,308
2023-04-15T04:20:05.531Z,308
2023-04-15T04:20:36.402Z,308
2023-04-15T04:21:07.661Z,308
2023-04-15T04:21:38.570Z,308
2023-04-15T04:22:09.354Z,308
2023-04-15T04:22:40.424Z,308
2023-04-15T04:23:11.643Z,308
2023-04-15T04:23:42.323Z,308
2023-04-15T04:24:13.568Z,308
2023-04-15T04:24:44.621Z,308
2023-04-15T04:25:15.579Z,308
2023-04-15T04:25:46.288Z,308
2023-04-15T04:26:17.336Z,308
2023-04-15T04:26:48.577Z,308
2023-04-15T04:27:19.742Z,308
2023-04-15T04:27:50.796Z,308
2023-04-15T04:28:21.296Z,308
2023-04-15T04:28:52.697Z,308
2023-04-15T04:29:23.337Z,309
2023-04-15T04:29:54.303Z,309
2023-04-15T04:30:26.199Z,309
2023-04-15T04:30:56.474Z,309
2023-04-15T04:31:27.682Z,309
2023-04-15T04:31:58.432Z,309
2023-04-15T04:32:29.377Z,309
2023-04-15T04:33:00.647Z,309
2023-04-15T04:33:31.701Z,309
2023-04-15T04:34:02.399Z,309
2023-04-15T04:34:33.394Z,309
2023-04-15T04:35:04.766Z,309
2023-04-15T04:35:36.536Z,309
2023-04-15T04:36:06.584Z,309
2023-04-15T04:36:37.671Z,309
2023-04-15T04:37:08.449Z,309
2023-04-15T04:37:39.459Z,309
2023-04-15T04:38:10.419Z,303
2023-04-15T04:38:41.393Z,305
2023-04-15T04:39:12.376Z,305
2023-04-15T04:39:43.468Z,266
2023-04-15T04:40:15.045Z,258
2023-04-15T04:40:46.036Z,265
2023-04-15T04:41:16.549Z,267
2023-04-15T04:41:47.962Z,268
2023-04-15T04:42:18.612Z,266
2023-04-15T04:42:49.729Z,261
2023-04-15T04:43:20.384Z,260
2023-04-15T04:43:51.789Z,262
2023-04-15T04:44:22.410Z,246
2023-04-15T04:44:53.416Z,192
2023-04-15T04:45:25.202Z,211
2023-04-15T04:45:56.091Z,205
2023-04-15T04:46:26.558Z,198
2023-04-15T04:46:57.663Z,213
2023-04-15T04:47:28.447Z,242
2023-04-15T04:47:59.457Z,215
2023-04-15T04:48:32.788Z,233
2023-04-15T04:49:01.792Z,203
2023-04-15T04:49:33.789Z,206
2023-04-15T04:50:03.906Z,211
2023-04-15T04:50:36.900Z,213
2023-04-15T04:51:05.727Z,215
2023-04-15T04:51:36.567Z,191
2023-04-15T04:52:07.644Z,184
2023-04-15T04:52:38.794Z,201
2023-04-15T04:53:09.820Z,177
2023-04-15T04:53:40.401Z,179
2023-04-15T04:54:11.457Z,176
2023-04-15T04:54:42.491Z,237
2023-04-15T04:55:13.924Z,220
2023-04-15T04:55:44.644Z,244
2023-04-15T04:56:15.841Z,244
2023-04-15T04:56:46.690Z,235
2023-04-15T04:57:17.507Z,203
2023-04-15T04:57:48.785Z,202
2023-04-15T04:58:19.512Z,207
2023-04-15T04:58:50.874Z,206
2023-04-15T04:59:21.854Z,208
2023-04-15T04:59:52.475Z,212
2023-04-15T05:00:24.513Z,233
2023-04-15T05:00:55.387Z,242
2023-04-15T05:01:25.966Z,221
2023-04-15T05:01:57.236Z,209
2023-04-15T05:02:28.116Z,184
2023-04-15T05:02:58.646Z,199
2023-04-15T05:03:29.942Z,236
2023-04-15T05:04:00.790Z,227
2023-04-15T05:04:31.855Z,241
2023-04-15T05:05:02.626Z,238
2023-04-15T05:05:34.300Z,213
2023-04-15T05:06:05.050Z,228
2023-04-15T05:06:35.409Z,230
2023-04-15T05:07:06.684Z,244
2023-04-15T05:07:37.858Z,240
2023-04-15T05:08:08.942Z,239
2023-04-15T05:08:40.415Z,238
2023-04-15T05:09:10.908Z,220
2023-04-15T05:09:41.518Z,237
2023-04-15T05:10:13.279Z,246
2023-04-15T05:10:43.971Z,238
2023-04-15T05:11:14.618Z,243
2023-04-15T05:11:45.489Z,243
2023-04-15T05:12:16.720Z,242
2023-04-15T05:12:47.508Z,213
2023-04-15T05:13:19.145Z,239
2023-04-15T05:13:49.913Z,244
2023-04-15T05:14:22.872Z,250
2023-04-15T05:14:51.725Z,249
2023-04-15T05:15:23.319Z,250
2023-04-15T05:15:53.866Z,253
2023-04-15T05:16:25.234Z,255
2023-04-15T05:16:55.569Z,255
2023-04-15T05:17:26.664Z,256
2023-04-15T05:17:57.533Z,258
2023-04-15T05:18:28.797Z,258
2023-04-15T05:18:59.904Z,259
2023-04-15T05:19:30.880Z,259
2023-04-15T05:20:02.991Z,260
2023-04-15T05:20:32.943Z,265
2023-04-15T05:21:04.822Z,262
2023-04-15T05:21:34.626Z,219
2023-04-15T05:22:05.542Z,239
2023-04-15T05:22:36.869Z,249
2023-04-15T05:23:07.880Z,269
2023-04-15T05:23:38.563Z,274
2023-04-15T05:24:09.877Z,277
2023-04-15T05:24:40.607Z,278
2023-04-15T05:25:12.151Z,276
2023-04-15T05:25:42.691Z,283
2023-04-15T05:26:13.812Z,291
2023-04-15T05:26:44.813Z,292
2023-04-15T05:27:15.604Z,300
2023-04-15T05:27:46.686Z,324
2023-04-15T05:28:17.712Z,343
2023-04-15T05:28:48.669Z,344
2023-04-15T05:29:19.604Z,344
2023-04-15T05:29:50.716Z,344
2023-04-15T05:30:22.301Z,344
2023-04-15T05:30:52.911Z,345
2023-04-15T05:31:23.892Z,346
2023-04-15T05:31:54.595Z,346
2023-04-15T05:32:25.651Z,346
2023-04-15T05:32:56.868Z,346
2023-04-15T05:33:27.759Z,346
2023-04-15T05:33:58.617Z,346
2023-04-15T05:34:29.535Z,346
2023-04-15T05:35:00.736Z,347
2023-04-15T05:35:31.859Z,347
2023-04-15T05:36:02.600Z,347
2023-04-15T05:36:33.647Z,347
2023-04-15T05:37:04.829Z,347
2023-04-15T05:37:35.733Z,348
2023-04-15T05:38:06.558Z,347
2023-04-15T05:38:37.620Z,348
2023-04-15T05:39:08.846Z,348
2023-04-15T05:39:39.903Z,348
2023-04-15T05:40:11.088Z,348
2023-04-15T05:40:41.977Z,348
2023-04-15T05:41:12.731Z,349
2023-04-15T05:41:43.666Z,349
2023-04-15T05:42:14.674Z,349
2023-04-15T05:42:45.831Z,349
2023-04-15T05:43:16.844Z,349
2023-04-15T05:43:47.602Z,349
2023-04-15T05:44:18.658Z,349
2023-04-15T05:44:49.681Z,349
2023-04-15T05:45:21.570Z,349
2023-04-15T05:45:51.671Z,349
2023-04-15T05:46:22.742Z,349
2023-04-15T05:46:53.660Z,349
2023-04-15T05:47:24.616Z,349
2023-04-15T05:47:55.806Z,349
2023-04-15T05:48:26.643Z,349
2023-04-15T05:48:57.670Z,349
2023-04-15T05:49:28.906Z,349
2023-04-15T05:49:59.685Z,349
2023-04-15T05:50:31.322Z,349
2023-04-15T05:51:01.675Z,348
2023-04-15T05:51:33.569Z,347
2023-04-15T05:52:03.975Z,341
2023-04-15T05:52:36.561Z,332
2023-04-15T05:53:05.684Z,296
2023-04-15T05:53:37.310Z,286
2023-04-15T05:54:07.707Z,285
2023-04-15T05:54:39.048Z,272
2023-04-15T05:55:10.201Z,272
2023-04-15T05:55:41.299Z,258
2023-04-15T05:56:11.869Z,257
2023-04-15T05:56:42.630Z,256
2023-04-15T05:57:13.860Z,257
2023-04-15T05:57:44.699Z,261
2023-04-15T05:58:15.642Z,259
2023-04-15T05:58:46.709Z,266
2023-04-15T05:59:17.734Z,263
2023-04-15T05:59:49.010Z,265
2023-04-15T06:00:20.880Z,264
2023-04-15T06:00:51.030Z,261
2023-04-15T06:01:21.679Z,259
2023-04-15T06:01:52.889Z,255
2023-04-15T06:02:24.192Z,269
2023-04-15T06:02:55.102Z,283
2023-04-15T06:03:25.944Z,287
2023-04-15T06:03:56.850Z,284
2023-04-15T06:04:27.787Z,274
2023-04-15T06:04:58.936Z,272
2023-04-15T06:05:30.236Z,262
2023-04-15T06:06:00.765Z,279
2023-04-15T06:06:31.806Z,277
2023-04-15T06:07:03.258Z,279
2023-04-15T06:07:33.798Z,280
2023-04-15T06:08:04.814Z,279
2023-04-15T06:08:35.841Z,281
2023-04-15T06:09:07.056Z,283
2023-04-15T06:09:37.748Z,290
2023-04-15T06:10:09.227Z,286
2023-04-15T06:10:39.669Z,282
2023-04-15T06:11:10.740Z,276
2023-04-15T06:11:41.816Z,285
2023-04-15T06:12:12.900Z,286
2023-04-15T06:12:43.819Z,287
2023-04-15T06:13:14.698Z,287
2023-04-15T06:13:45.744Z,290
2023-04-15T06:14:16.811Z,290
2023-04-15T06:14:47.744Z,292
2023-04-15T06:15:19.640Z,292
2023-04-15T06:15:49.804Z,293
2023-04-15T06:16:21.276Z,293
2023-04-15T06:16:51.951Z,295
2023-04-15T06:17:23.208Z,304
2023-04-15T06:17:54.180Z,303
2023-04-15T06:18:25.002Z,302
2023-04-15T06:18:56.076Z,302
2023-04-15T06:19:27.190Z,301
2023-04-15T06:19:58.325Z,302
2023-04-15T06:20:29.245Z,302
2023-04-15T06:20:59.841Z,302
2023-04-15T06:21:30.767Z,302
2023-04-15T06:22:01.780Z,286
2023-04-15T06:22:32.960Z,259
2023-04-15T06:23:06.218Z,240
2023-04-15T06:23:35.073Z,207
2023-04-15T06:24:08.401Z,226
2023-04-15T06:24:36.809Z,229
2023-04-15T06:25:08.392Z,234
2023-04-15T06:25:38.782Z,224
2023-04-15T06:26:10.185Z,232
2023-04-15T06:26:41.033Z,228
2023-04-15T06:27:11.798Z,236
2023-04-15T06:27:42.900Z,250
2023-04-15T06:28:13.863Z,238
2023-04-15T06:28:45.205Z,238
2023-04-15T06:29:16.757Z,258
2023-04-15T06:29:46.892Z,241
2023-04-15T06:30:18.715Z,249
2023-04-15T06:30:48.929Z,246
2023-04-15T06:31:20.048Z,243
2023-04-15T06:31:51.156Z,235
2023-04-15T06:32:21.965Z,239
2023-04-15T06:32:53.296Z,243
2023-04-15T06:33:24.209Z,235
2023-04-15T06:33:54.838Z,239
2023-04-15T06:34:26.202Z,239
2023-04-15T06:34:57.141Z,246
2023-04-15T06:35:28.250Z,250
2023-04-15T06:35:59.117Z,239
2023-04-15T06:36:30.119Z,258
2023-04-15T06:37:01.189Z,228
2023-04-15T06:37:31.923Z,235
2023-04-15T06:38:03.214Z,249
2023-04-15T06:38:34.203Z,240
2023-04-15T06:39:04.898Z,239
2023-04-15T06:39:35.969Z,245
2023-04-15T06:40:07.407Z,263
2023-04-15T06:40:38.209Z,233
2023-04-15T06:41:09.166Z,232
2023-04-15T06:41:39.993Z,230
2023-04-15T06:42:11.206Z,242
2023-04-15T06:42:41.975Z,252
2023-04-15T06:43:13.020Z,259
2023-04-15T06:43:44.433Z,244
2023-04-15T06:44:15.188Z,240
2023-04-15T06:44:46.549Z,231
2023-04-15T06:45:17.929Z,219
2023-04-15T06:45:48.304Z,208
2023-04-15T06:46:19.276Z,238
2023-04-15T06:46:50.362Z,204
2023-04-15T06:47:21.376Z,259
2023-04-15T06:47:51.985Z,233
2023-04-15T06:48:23.263Z,240
2023-04-15T06:48:54.047Z,240
2023-04-15T06:49:25.185Z,237
2023-04-15T06:49:55.980Z,255
2023-04-15T06:50:27.800Z,243
2023-04-15T06:50:58.302Z,241
2023-04-15T06:51:29.405Z,222
2023-04-15T06:52:00.340Z,247
2023-04-15T06:52:30.942Z,248
2023-04-15T06:53:02.337Z,235
2023-04-15T06:53:33.015Z,252
2023-04-15T06:54:03.903Z,256
2023-04-15T06:54:37.219Z,245
2023-04-15T06:55:06.142Z,233
2023-04-15T06:55:38.252Z,244
2023-04-15T06:56:07.947Z,230
2023-04-15T06:56:40.245Z,248
2023-04-15T06:57:10.188Z,253
2023-04-15T06:57:41.364Z,243
2023-04-15T06:58:11.998Z,241
2023-04-15T06:58:42.897Z,237
2023-04-15T06:59:13.992Z,245
2023-04-15T06:59:46.106Z,246
2023-04-15T07:00:16.528Z,229
2023-04-15T07:00:47.242Z,269
2023-04-15T07:01:18.095Z,279
2023-04-15T07:01:49.008Z,249
2023-04-15T07:02:20.631Z,239
2023-04-15T07:02:51.066Z,250
2023-04-15T07:03:22.051Z,233
2023-04-15T07:03:53.002Z,233
2023-04-15T07:04:24.090Z,222
2023-04-15T07:04:55.083Z,221
2023-04-15T07:05:27.869Z,195
2023-04-15T07:05:56.993Z,233
2023-04-15T07:06:28.388Z,227
2023-04-15T07:06:59.203Z,225
2023-04-15T07:07:29.929Z,226
2023-04-15T07:08:01.019Z,239
2023-04-15T07:08:32.048Z,234
2023-04-15T07:09:03.269Z,239
2023-04-15T07:09:34.372Z,205
2023-04-15T07:10:05.414Z,245
2023-04-15T07:10:36.015Z,199
2023-04-15T07:11:07.043Z,242
2023-04-15T07:11:38.015Z,268
2023-04-15T07:12:09.269Z,261
2023-04-15T07:12:40.162Z,246